createdAt,value
2023-02-11T00:01:22.584Z,39.79
2023-02-11T00:03:49.949Z,39.62
2023-02-11T00:06:17.316Z,39.78
2023-02-11T00:08:43.730Z,39.61
2023-02-11T00:14:05.014Z,39.55
2023-02-11T00:16:32.555Z,39.64
2023-02-11T00:18:59.917Z,39.96
2023-02-11T00:21:26.359Z,39.63
2023-02-11T00:23:53.630Z,39.55
2023-02-11T00:29:17.508Z,39.55
2023-02-11T00:31:44.017Z,39.68
2023-02-11T00:34:10.539Z,39.61
2023-02-11T00:36:37.794Z,39.84
2023-02-11T00:39:05.136Z,39.93
2023-02-11T00:44:15.752Z,39.84
2023-02-11T00:46:43.179Z,39.87
2023-02-11T00:49:10.500Z,39.64
2023-02-11T00:51:36.938Z,39.63
2023-02-11T00:54:04.241Z,39.73
2023-02-11T00:59:15.541Z,39.71
2023-02-11T01:01:42.858Z,39.75
2023-02-11T01:04:11.317Z,39.62
2023-02-11T01:06:37.764Z,39.56
2023-02-11T01:09:05.060Z,39.57
2023-02-11T01:14:27.432Z,39.81
2023-02-11T01:16:55.753Z,39.64
2023-02-11T01:19:22.259Z,39.55
2023-02-11T01:21:50.610Z,39.65
2023-02-11T01:24:19.806Z,39.65
2023-02-11T01:29:32.044Z,39.71
2023-02-11T01:31:58.544Z,39.61
2023-02-11T01:34:26.786Z,39.77
2023-02-11T01:36:53.245Z,39.84
2023-02-11T01:39:23.156Z,39.78
2023-02-11T01:44:48.001Z,39.71
2023-02-11T01:47:14.474Z,39.74
2023-02-11T01:49:44.408Z,39.77
2023-02-11T01:52:10.902Z,39.60
2023-02-11T01:54:40.060Z,39.81
2023-02-11T02:00:02.659Z,39.66
2023-02-11T02:02:29.091Z,39.72
2023-02-11T02:04:58.254Z,39.76
2023-02-11T02:07:24.669Z,39.77
2023-02-11T02:09:51.099Z,39.44
2023-02-11T02:15:11.936Z,39.63
2023-02-11T02:17:38.366Z,39.72
2023-02-11T02:20:04.820Z,39.81
2023-02-11T02:22:33.983Z,39.63
2023-02-11T02:25:03.915Z,39.62
2023-02-11T02:30:29.452Z,39.77
2023-02-11T02:32:55.926Z,39.83
2023-02-11T02:35:23.164Z,39.74
2023-02-11T02:37:53.079Z,39.82
2023-02-11T02:40:22.230Z,39.88
2023-02-11T02:45:35.155Z,39.70
2023-02-11T02:48:02.416Z,39.63
2023-02-11T02:50:28.936Z,39.81
2023-02-11T02:52:55.358Z,39.51
2023-02-11T02:55:21.776Z,39.76
2023-02-11T03:00:34.038Z,39.99
2023-02-11T03:03:02.325Z,39.63
2023-02-11T03:05:30.626Z,39.81
2023-02-11T03:07:57.024Z,39.76
2023-02-11T03:10:23.498Z,39.74
2023-02-11T03:15:36.939Z,39.85
2023-02-11T03:18:03.357Z,39.94
2023-02-11T03:20:29.794Z,39.71
2023-02-11T03:22:57.070Z,39.71
2023-02-11T03:25:26.216Z,39.75
2023-02-11T03:30:46.441Z,39.76
2023-02-11T03:33:12.868Z,39.70
2023-02-11T03:35:40.150Z,39.62
2023-02-11T03:38:06.589Z,39.84
2023-02-11T03:40:34.842Z,39.69
2023-02-11T03:45:58.696Z,39.88
2023-02-11T03:48:26.017Z,39.74
2023-02-11T03:50:52.416Z,39.79
2023-02-11T03:53:18.844Z,39.71
2023-02-11T03:55:45.280Z,39.84
2023-02-11T04:01:05.816Z,39.57
2023-02-11T04:03:32.240Z,39.84
2023-02-11T04:05:58.642Z,39.89
2023-02-11T04:08:25.095Z,39.72
2023-02-11T04:10:51.548Z,39.79
2023-02-11T04:16:14.847Z,39.71
2023-02-11T04:18:44.097Z,39.61
2023-02-11T04:21:10.506Z,39.66
2023-02-11T04:23:36.979Z,39.75
2023-02-11T04:26:03.414Z,39.55
2023-02-11T04:31:16.663Z,39.67
2023-02-11T04:33:45.029Z,39.73
2023-02-11T04:36:12.267Z,39.56
2023-02-11T04:38:41.437Z,39.85
2023-02-11T04:41:07.762Z,39.62
2023-02-11T04:43:34.126Z,39.54
2023-02-11T04:46:03.320Z,39.69
2023-02-11T04:48:29.740Z,39.95
2023-02-11T04:50:56.987Z,39.67
2023-02-11T04:53:23.358Z,39.53
2023-02-11T04:55:50.039Z,39.62
2023-02-11T04:58:16.600Z,39.63
2023-02-11T05:00:43.093Z,39.67
2023-02-11T05:03:11.352Z,39.65
2023-02-11T05:05:40.506Z,39.70
2023-02-11T05:08:06.930Z,39.76
2023-02-11T05:10:33.342Z,39.71
2023-02-11T05:12:59.766Z,39.63
2023-02-11T05:15:26.147Z,39.85
2023-02-11T05:17:55.332Z,39.67
2023-02-11T05:20:21.741Z,39.58
2023-02-11T05:22:48.082Z,39.46
2023-02-11T05:25:14.596Z,39.53
2023-02-11T05:27:42.877Z,39.64
2023-02-11T05:30:10.143Z,39.75
2023-02-11T05:32:36.581Z,39.60
2023-02-11T05:35:03.816Z,39.63
2023-02-11T05:37:31.196Z,39.76
2023-02-11T05:39:57.651Z,39.80
2023-02-11T05:42:24.090Z,39.74
2023-02-11T05:44:51.350Z,39.55
2023-02-11T05:47:17.748Z,39.57
2023-02-11T05:49:46.084Z,39.74
2023-02-11T05:52:12.484Z,39.54
2023-02-11T05:54:40.765Z,39.84
2023-02-11T05:57:07.175Z,39.86
2023-02-11T05:59:36.299Z,39.56
2023-02-11T06:04:57.665Z,39.80
2023-02-11T06:07:26.877Z,39.72
2023-02-11T06:09:53.274Z,39.56
2023-02-11T06:12:19.684Z,39.87
2023-02-11T06:14:48.878Z,39.70
2023-02-11T06:20:00.206Z,39.73
2023-02-11T06:22:26.628Z,39.83
2023-02-11T06:25:01.256Z,40.01
2023-02-11T06:27:29.236Z,39.89
2023-02-11T06:29:55.650Z,39.67
2023-02-11T06:35:16.158Z,39.75
2023-02-11T06:37:42.591Z,39.77
2023-02-11T06:40:09.103Z,39.69
2023-02-11T06:42:35.788Z,39.90
2023-02-11T06:45:04.083Z,39.74
2023-02-11T06:50:16.249Z,39.60
2023-02-11T06:52:42.687Z,39.80
2023-02-11T06:55:09.099Z,39.68
2023-02-11T06:57:35.540Z,39.70
2023-02-11T07:00:02.072Z,39.82
2023-02-11T07:05:14.514Z,39.68
2023-02-11T07:07:40.909Z,39.53
2023-02-11T07:10:10.074Z,39.76
2023-02-11T07:12:39.231Z,39.71
2023-02-11T07:15:07.530Z,39.65
2023-02-11T07:20:29.105Z,39.91
2023-02-11T07:22:55.580Z,39.70
2023-02-11T07:25:22.049Z,39.81
2023-02-11T07:27:48.462Z,39.66
2023-02-11T07:30:14.955Z,39.70
2023-02-11T07:35:25.512Z,39.81
2023-02-11T07:37:51.870Z,39.78
2023-02-11T07:40:18.298Z,39.73
2023-02-11T07:42:44.717Z,39.72
2023-02-11T07:45:11.136Z,39.64
2023-02-11T07:50:31.552Z,39.77
2023-02-11T07:52:58.781Z,39.58
2023-02-11T07:55:25.148Z,39.86
2023-02-11T07:57:52.393Z,39.63
2023-02-11T08:00:21.054Z,39.59
2023-02-11T08:05:44.337Z,39.58
2023-02-11T08:08:11.590Z,39.77
2023-02-11T08:10:38.014Z,39.91
2023-02-11T08:13:04.453Z,39.71
2023-02-11T08:15:31.689Z,39.89
2023-02-11T08:20:54.578Z,39.93
2023-02-11T08:23:21.025Z,39.87
2023-02-11T08:25:47.438Z,39.92
2023-02-11T08:28:13.943Z,39.85
2023-02-11T08:30:40.446Z,39.76
2023-02-11T08:36:03.451Z,39.96
2023-02-11T08:38:32.685Z,39.80
2023-02-11T08:40:59.950Z,39.87
2023-02-11T08:43:26.380Z,39.80
2023-02-11T08:45:53.266Z,39.93
2023-02-11T08:51:04.026Z,39.85
2023-02-11T08:53:33.185Z,39.91
2023-02-11T08:56:03.169Z,39.82
2023-02-11T08:58:32.342Z,39.76
2023-02-11T09:01:00.666Z,39.96
2023-02-11T09:06:24.469Z,40.00
2023-02-11T09:08:50.983Z,40.24
2023-02-11T09:11:20.168Z,39.82
2023-02-11T09:13:46.604Z,39.84
2023-02-11T09:16:13.052Z,39.90
2023-02-11T09:21:25.954Z,40.16
2023-02-11T09:23:53.199Z,39.98
2023-02-11T09:26:21.529Z,39.96
2023-02-11T09:28:48.038Z,40.05
2023-02-11T09:31:14.518Z,40.26
2023-02-11T09:36:35.703Z,40.03
2023-02-11T09:39:02.180Z,40.12
2023-02-11T09:41:30.501Z,40.04
2023-02-11T09:43:56.917Z,40.25
2023-02-11T09:46:25.293Z,40.24
2023-02-11T09:51:38.678Z,40.26
2023-02-11T09:54:05.661Z,40.06
2023-02-11T09:56:32.965Z,40.13
2023-02-11T09:58:59.298Z,40.40
2023-02-11T10:01:25.815Z,40.34
2023-02-11T10:06:36.036Z,40.40
2023-02-11T10:09:02.440Z,40.27
2023-02-11T10:11:32.519Z,40.49
2023-02-11T10:13:59.123Z,40.46
2023-02-11T10:16:25.522Z,40.35
2023-02-11T10:21:49.594Z,40.48
2023-02-11T10:24:15.974Z,40.40
2023-02-11T10:26:42.410Z,40.54
2023-02-11T10:29:08.851Z,40.47
2023-02-11T10:31:35.449Z,40.20
2023-02-11T10:37:00.775Z,40.30
2023-02-11T10:39:27.275Z,40.54
2023-02-11T10:41:53.706Z,40.47
2023-02-11T10:44:20.178Z,40.48
2023-02-11T10:46:46.713Z,40.45
2023-02-11T10:52:02.049Z,40.53
2023-02-11T10:54:30.307Z,40.47
2023-02-11T10:56:56.725Z,40.50
2023-02-11T10:59:23.954Z,40.69
2023-02-11T11:01:53.245Z,40.50
2023-02-11T11:07:03.547Z,40.58
2023-02-11T11:09:29.952Z,40.40
2023-02-11T11:11:56.366Z,40.35
2023-02-11T11:14:25.565Z,40.55
2023-02-11T11:16:52.047Z,40.50
2023-02-11T11:22:13.328Z,40.45
2023-02-11T11:24:40.597Z,40.60
2023-02-11T11:27:07.015Z,40.67
2023-02-11T11:29:35.307Z,40.57
2023-02-11T11:32:01.829Z,40.74
2023-02-11T11:37:25.101Z,40.87
2023-02-11T11:39:54.604Z,40.65
2023-02-11T11:42:21.071Z,40.54
2023-02-11T11:44:47.477Z,40.59
2023-02-11T11:47:15.765Z,40.66
2023-02-11T11:52:36.454Z,40.59
2023-02-11T11:55:03.774Z,40.73
2023-02-11T11:57:31.071Z,40.61
2023-02-11T11:59:59.406Z,40.73
2023-02-11T12:02:27.784Z,40.61
2023-02-11T12:07:51.438Z,40.69
2023-02-11T12:10:18.841Z,40.79
2023-02-11T12:12:46.860Z,40.54
2023-02-11T12:15:14.284Z,40.82
2023-02-11T12:17:41.537Z,40.83
2023-02-11T12:22:52.934Z,40.67
2023-02-11T12:25:19.425Z,40.75
2023-02-11T12:27:46.842Z,40.58
2023-02-11T12:30:15.148Z,40.65
2023-02-11T12:32:41.625Z,40.73
2023-02-11T12:38:04.104Z,40.58
2023-02-11T12:40:30.607Z,40.60
2023-02-11T12:43:02.204Z,40.56
2023-02-11T12:45:29.084Z,40.58
2023-02-11T12:47:57.436Z,40.66
2023-02-11T12:53:19.670Z,40.71
2023-02-11T12:55:46.490Z,41.10
2023-02-11T12:58:14.799Z,41.04
2023-02-11T13:00:41.329Z,41.24
2023-02-11T13:03:07.768Z,41.25
2023-02-11T13:08:18.394Z,42.71
2023-02-11T13:10:44.798Z,43.20
2023-02-11T13:13:11.237Z,43.69
2023-02-11T13:15:40.404Z,43.69
2023-02-11T13:18:06.802Z,43.75
2023-02-11T13:20:34.059Z,43.57
2023-02-11T13:23:00.723Z,43.82
2023-02-11T13:25:27.066Z,43.50
2023-02-11T13:27:53.535Z,43.75
2023-02-11T13:30:20.911Z,44.88
2023-02-11T13:32:48.258Z,44.21
2023-02-11T13:35:14.925Z,44.15
2023-02-11T13:37:42.534Z,43.66
2023-02-11T13:40:09.095Z,43.99
2023-02-11T13:42:36.484Z,43.69
2023-02-11T13:45:03.887Z,44.48
2023-02-11T13:47:30.384Z,44.36
2023-02-11T13:49:57.804Z,43.98
2023-02-11T13:52:24.277Z,43.75
2023-02-11T13:54:50.783Z,43.54
2023-02-11T13:57:18.346Z,43.81
2023-02-11T13:59:44.805Z,43.61
2023-02-11T14:02:11.313Z,43.67
2023-02-11T14:04:37.796Z,43.80
2023-02-11T14:07:04.302Z,43.92
2023-02-11T14:09:30.766Z,43.30
2023-02-11T14:11:57.275Z,43.78
2023-02-11T14:14:23.777Z,43.75
2023-02-11T14:16:50.257Z,43.32
2023-02-11T14:19:17.733Z,43.83
2023-02-11T14:21:44.210Z,43.65
2023-02-11T14:24:11.652Z,43.36
2023-02-11T14:26:38.136Z,43.11
2023-02-11T14:29:04.611Z,42.77
2023-02-11T14:31:32.137Z,42.97
2023-02-11T14:33:58.660Z,42.98
2023-02-11T14:36:25.117Z,42.95
2023-02-11T14:41:36.640Z,42.80
2023-02-11T14:44:03.121Z,42.93
2023-02-11T14:46:29.659Z,42.90
2023-02-11T14:48:56.169Z,42.55
2023-02-11T14:51:23.556Z,41.98
2023-02-11T14:56:34.350Z,42.06
2023-02-11T14:59:00.863Z,42.42
2023-02-11T15:01:28.283Z,42.98
2023-02-11T15:03:55.681Z,42.91
2023-02-11T15:06:23.085Z,43.22
2023-02-11T15:11:43.736Z,43.12
2023-02-11T15:14:10.160Z,43.53
2023-02-11T15:16:36.726Z,42.59
2023-02-11T15:19:03.218Z,42.60
2023-02-11T15:21:30.507Z,42.80
2023-02-11T15:26:50.859Z,43.40
2023-02-11T15:29:17.374Z,43.63
2023-02-11T15:31:44.786Z,43.13
2023-02-11T15:34:11.345Z,43.01
2023-02-11T15:36:38.653Z,43.90
2023-02-11T15:42:01.165Z,43.77
2023-02-11T15:44:28.586Z,43.49
2023-02-11T15:46:57.768Z,43.30
2023-02-11T15:49:25.015Z,43.99
2023-02-11T15:51:51.463Z,44.08
2023-02-11T15:57:05.428Z,43.95
2023-02-11T15:59:31.935Z,43.79
2023-02-11T16:01:59.306Z,44.32
2023-02-11T16:04:25.776Z,44.96
2023-02-11T16:06:52.318Z,44.36
2023-02-11T16:12:04.582Z,44.45
2023-02-11T16:14:32.024Z,44.74
2023-02-11T16:16:58.498Z,44.73
2023-02-11T16:19:25.906Z,45.49
2023-02-11T16:21:53.281Z,45.83
2023-02-11T16:27:15.573Z,46.29
2023-02-11T16:29:42.023Z,46.27
2023-02-11T16:32:08.502Z,46.09
2023-02-11T16:34:35.788Z,46.55
2023-02-11T16:37:03.088Z,46.56
2023-02-11T16:42:24.439Z,46.78
2023-02-11T16:44:51.051Z,46.75
2023-02-11T16:47:18.292Z,47.69
2023-02-11T16:49:44.769Z,47.95
2023-02-11T16:52:11.999Z,48.04
2023-02-11T16:57:22.446Z,49.02
2023-02-11T16:59:52.384Z,48.29
2023-02-11T17:02:19.065Z,48.28
2023-02-11T17:04:45.597Z,48.91
2023-02-11T17:07:13.954Z,48.42
2023-02-11T17:12:36.206Z,48.50
2023-02-11T17:15:06.636Z,48.55
2023-02-11T17:17:34.078Z,48.73
2023-02-11T17:20:00.585Z,49.22
2023-02-11T17:22:27.081Z,49.16
2023-02-11T17:27:52.784Z,49.69
2023-02-11T17:30:22.086Z,49.43
2023-02-11T17:32:48.519Z,50.13
2023-02-11T17:35:14.946Z,49.49
2023-02-11T17:37:41.434Z,50.21
2023-02-11T17:43:03.690Z,50.24
2023-02-11T17:45:31.291Z,50.44
2023-02-11T17:47:58.628Z,50.62
2023-02-11T17:50:27.081Z,50.12
2023-02-11T17:52:54.624Z,50.53
2023-02-11T17:58:06.310Z,50.58
2023-02-11T18:00:32.733Z,50.45
2023-02-11T18:03:00.036Z,50.30
2023-02-11T18:05:27.501Z,50.16
2023-02-11T18:07:54.772Z,50.37
2023-02-11T18:13:08.861Z,50.41
2023-02-11T18:15:37.426Z,50.47
2023-02-11T18:18:03.867Z,50.63
2023-02-11T18:20:33.025Z,50.36
2023-02-11T18:22:59.463Z,50.23
2023-02-11T18:28:11.076Z,50.91
2023-02-11T18:30:39.339Z,50.64
2023-02-11T18:33:05.783Z,50.94
2023-02-11T18:35:34.974Z,51.12
2023-02-11T18:38:04.189Z,50.50
2023-02-11T18:40:33.384Z,51.06
2023-02-11T18:43:00.107Z,51.37
2023-02-11T18:45:28.546Z,50.93
2023-02-11T18:47:55.024Z,51.04
2023-02-11T18:50:21.506Z,50.95
2023-02-11T18:52:47.860Z,51.30
2023-02-11T18:55:14.246Z,51.51
2023-02-11T18:57:40.959Z,51.70
2023-02-11T19:00:08.201Z,52.44
2023-02-11T19:02:35.444Z,52.21
2023-02-11T19:05:01.837Z,52.60
2023-02-11T19:07:28.190Z,52.59
2023-02-11T19:09:54.541Z,52.58
2023-02-11T19:12:21.756Z,52.57
2023-02-11T19:14:48.099Z,52.71
2023-02-11T19:17:15.300Z,52.77
2023-02-11T19:19:41.643Z,53.23
2023-02-11T19:22:10.395Z,53.59
2023-02-11T19:24:37.068Z,54.38
2023-02-11T19:27:03.473Z,56.46
2023-02-11T19:29:29.817Z,55.12
2023-02-11T19:31:57.191Z,54.79
2023-02-11T19:34:23.609Z,54.71
2023-02-11T19:36:49.957Z,55.30
2023-02-11T19:39:16.294Z,55.03
2023-02-11T19:41:42.652Z,55.18
2023-02-11T19:44:09.014Z,55.79
2023-02-11T19:46:35.620Z,55.12
2023-02-11T19:49:02.893Z,54.84
2023-02-11T19:51:29.231Z,55.10
2023-02-11T19:53:55.740Z,54.92
2023-02-11T19:56:22.090Z,55.42
2023-02-11T20:01:32.509Z,54.52
2023-02-11T20:03:58.914Z,55.27
2023-02-11T20:06:25.227Z,54.85
2023-02-11T20:08:51.571Z,55.16
2023-02-11T20:11:18.944Z,54.79
2023-02-11T20:16:46.268Z,54.72
2023-02-11T20:19:14.247Z,54.50
2023-02-11T20:21:40.791Z,54.71
2023-02-11T20:24:07.172Z,54.87
2023-02-11T20:26:33.524Z,54.97
2023-02-11T20:31:53.762Z,54.69
2023-02-11T20:34:21.057Z,54.84
2023-02-11T20:36:47.411Z,55.35
2023-02-11T20:39:13.756Z,54.62
2023-02-11T20:41:40.184Z,55.03
2023-02-11T20:47:00.323Z,55.20
2023-02-11T20:49:26.633Z,55.33
2023-02-11T20:51:52.954Z,54.22
2023-02-11T20:54:19.294Z,55.31
2023-02-11T20:56:47.816Z,55.16
2023-02-11T21:02:09.404Z,53.95
2023-02-11T21:04:35.822Z,53.85
2023-02-11T21:07:02.208Z,53.55
2023-02-11T21:09:28.555Z,53.40
2023-02-11T21:11:54.911Z,53.29
2023-02-11T21:17:06.410Z,52.68
2023-02-11T21:19:32.768Z,52.10
2023-02-11T21:21:59.096Z,52.62
2023-02-11T21:24:25.456Z,52.35
2023-02-11T21:26:51.798Z,51.98
2023-02-11T21:32:13.021Z,51.34
2023-02-11T21:34:39.634Z,51.46
2023-02-11T21:37:05.994Z,51.34
2023-02-11T21:39:32.310Z,50.78
2023-02-11T21:41:58.823Z,50.69
2023-02-11T21:47:10.056Z,48.38
2023-02-11T21:49:36.490Z,47.61
2023-02-11T21:52:02.959Z,47.56
2023-02-11T21:54:29.266Z,46.80
2023-02-11T21:56:55.657Z,46.40
2023-02-11T22:02:18.732Z,46.61
2023-02-11T22:04:48.145Z,45.56
2023-02-11T22:07:14.544Z,45.62
2023-02-11T22:09:40.863Z,45.79
2023-02-11T22:12:07.228Z,45.73
2023-02-11T22:17:17.459Z,46.77
2023-02-11T22:19:43.832Z,46.86
2023-02-11T22:22:10.369Z,47.00
2023-02-11T22:24:36.704Z,46.47
2023-02-11T22:27:02.999Z,46.80
2023-02-11T22:32:26.021Z,47.03
2023-02-11T22:34:53.486Z,46.83
2023-02-11T22:37:19.978Z,46.96
2023-02-11T22:39:46.307Z,46.81
2023-02-11T22:42:12.636Z,47.25
2023-02-11T22:47:25.850Z,46.57
2023-02-11T22:49:52.168Z,47.67
2023-02-11T22:52:21.286Z,46.54
2023-02-11T22:54:47.623Z,46.27
2023-02-11T22:57:14.015Z,46.18
2023-02-11T22:59:40.658Z,46.18
2023-02-11T23:02:08.104Z,46.48
2023-02-11T23:04:35.597Z,46.38
2023-02-11T23:07:02.039Z,46.68
2023-02-11T23:09:28.387Z,46.38
2023-02-11T23:11:54.751Z,46.40
2023-02-11T23:14:21.118Z,46.76
2023-02-11T23:16:47.653Z,46.39
2023-02-11T23:19:14.050Z,46.90
2023-02-11T23:21:40.409Z,45.95
2023-02-11T23:24:06.754Z,46.80
2023-02-11T23:26:33.120Z,46.65
2023-02-11T23:28:59.507Z,46.15
2023-02-11T23:31:25.931Z,46.04
2023-02-11T23:33:52.326Z,45.87
2023-02-11T23:36:18.705Z,45.98
2023-02-11T23:38:45.038Z,45.98
2023-02-11T23:41:11.419Z,45.46
2023-02-11T23:43:40.504Z,45.79
2023-02-11T23:46:06.929Z,45.92
2023-02-11T23:48:36.102Z,45.92
2023-02-11T23:51:05.221Z,45.79
2023-02-11T23:53:34.343Z,45.55
2023-02-11T23:56:03.446Z,45.65
2023-02-11T23:58:29.796Z,45.70
